Time,TemperatureF,DewpointF,PressureIn,WindDirection,WindDirectionDegrees,WindSpeedMPH,WindSpeedGustMPH,Humidity,HourlyPrecipIn,Conditions,Clouds,dailyrainin,SoftwareType,DateUTC
2013-02-14 00:00:00,72.9,70.4,29.94,WSW,253,0.0,4.0,92,0.00,,SKC,0.00,VWS V14.01,2013-02-14 05:00:00,
2013-02-14 00:05:00,72.9,70.4,29.94,WNW,296,2.0,4.0,92,0.00,,SKC,0.00,VWS V14.01,2013-02-14 05:05:00,
2013-02-14 00:10:00,73.0,70.5,29.94,NW,323,5.0,8.0,92,0.00,,SKC,0.00,VWS V14.01,2013-02-14 05:10:00,
2013-02-14 00:15:00,71.7,68.0,29.94,NNW,345,9.0,14.0,88,0.00,,SKC,0.00,VWS V14.01,2013-02-14 05:15:00,
2013-02-14 00:20:00,69.6,65.2,29.94,NW,324,7.0,14.0,86,0.02,,SKC,0.02,VWS V14.01,2013-02-14 05:20:00,
2013-02-14 00:25:00,68.1,64.4,29.96,WNW,284,2.0,14.0,88,0.05,,SKC,0.05,VWS V14.01,2013-02-14 05:25:00,
2013-02-14 00:30:00,66.9,63.2,29.96,NNW,331,2.0,14.0,88,0.22,,SKC,0.22,VWS V14.01,2013-02-14 05:30:00,
2013-02-14 00:35:00,65.8,62.5,29.96,NE,55,4.0,13.0,89,0.41,,SKC,0.41,VWS V14.01,2013-02-14 05:35:00,
2013-02-14 00:40:00,65.0,62.3,29.96,NNE,28,2.0,13.0,91,0.46,,SKC,0.46,VWS V14.01,2013-02-14 05:40:00,
2013-02-14 00:45:00,64.6,62.2,29.97,North,351,4.0,13.0,92,0.53,,SKC,0.53,VWS V14.01,2013-02-14 05:45:00,
2013-02-14 00:50:00,64.2,61.8,29.96,NE,40,5.0,13.0,92,0.61,,SKC,0.61,VWS V14.01,2013-02-14 05:50:00,
2013-02-14 00:55:00,63.5,61.1,29.97,NE,55,1.0,13.0,92,0.65,,SKC,0.65,VWS V14.01,2013-02-14 05:55:00,
2013-02-14 01:00:00,63.1,61.0,29.97,NE,55,6.0,13.0,93,0.66,,SKC,0.66,VWS V14.01,2013-02-14 06:00:00,
2013-02-14 01:05:00,62.7,60.7,29.97,ENE,65,5.0,5.0,93,0.66,,SKC,0.66,VWS V14.01,2013-02-14 06:05:00,
2013-02-14 01:10:00,62.3,60.2,29.97,NE,48,4.0,7.0,93,0.66,,SKC,0.66,VWS V14.01,2013-02-14 06:10:00,
2013-02-14 01:15:00,62.0,60.0,29.97,NE,38,3.0,7.0,93,0.66,,SKC,0.66,VWS V14.01,2013-02-14 06:15:00,
2013-02-14 01:20:00,61.7,59.7,29.97,ENE,57,1.0,7.0,93,0.66,,SKC,0.66,VWS V14.01,2013-02-14 06:20:00,
2013-02-14 01:25:00,61.6,59.6,29.97,ENE,61,1.0,7.0,93,0.66,,SKC,0.66,VWS V14.01,2013-02-14 06:25:00,
2013-02-14 01:30:00,61.3,59.3,29.97,NE,42,1.0,7.0,93,0.66,,SKC,0.66,VWS V14.01,2013-02-14 06:30:00,
2013-02-14 01:35:00,61.2,59.2,29.96,NE,34,2.0,7.0,93,0.44,,SKC,0.66,VWS V14.01,2013-02-14 06:35:00,
2013-02-14 01:40:00,61.1,59.1,29.97,WNW,301,2.0,7.0,93,0.44,,SKC,0.66,VWS V14.01,2013-02-14 06:40:00,
2013-02-14 01:45:00,61.4,59.7,29.97,WNW,296,1.0,7.0,94,0.44,,SKC,0.66,VWS V14.01,2013-02-14 06:45:00,
2013-02-14 01:50:00,61.6,59.9,29.97,ENE,74,4.0,7.0,94,0.44,,SKC,0.66,VWS V14.01,2013-02-14 06:50:00,
2013-02-14 01:55:00,61.6,59.9,29.96,NE,40,4.0,7.0,94,0.44,,SKC,0.66,VWS V14.01,2013-02-14 06:55:00,
2013-02-14 02:00:00,61.4,59.7,29.96,NNW,333,2.0,7.0,94,0.44,,SKC,0.66,VWS V14.01,2013-02-14 07:00:00,
2013-02-14 02:05:00,61.4,59.7,29.96,NNW,345,0.0,4.0,94,0.00,,SKC,0.66,VWS V14.01,2013-02-14 07:05:00,
2013-02-14 02:10:00,61.6,59.9,29.95,NE,52,2.0,6.0,94,0.00,,SKC,0.66,VWS V14.01,2013-02-14 07:10:00,
2013-02-14 02:15:00,61.6,59.9,29.96,NE,51,1.0,6.0,94,0.00,,SKC,0.66,VWS V14.01,2013-02-14 07:15:00,
2013-02-14 02:20:00,61.4,59.7,29.96,NNE,31,0.0,6.0,94,0.00,,SKC,0.66,VWS V14.01,2013-02-14 07:20:00,
2013-02-14 02:25:00,61.3,59.6,29.96,NE,51,0.0,6.0,94,0.00,,SKC,0.66,VWS V14.01,2013-02-14 07:25:00,
2013-02-14 02:30:00,61.4,59.7,29.95,NNW,339,4.0,6.0,94,0.00,,SKC,0.66,VWS V14.01,2013-02-14 07:30:00,
2013-02-14 02:35:00,61.4,59.7,29.95,NNE,16,1.0,6.0,94,0.01,,SKC,0.67,VWS V14.01,2013-02-14 07:35:00,
2013-02-14 02:40:00,61.4,59.7,29.95,NE,48,1.0,6.0,94,0.01,,SKC,0.67,VWS V14.01,2013-02-14 07:40:00,
2013-02-14 02:45:00,61.3,59.6,29.96,NE,46,1.0,6.0,94,0.01,,SKC,0.67,VWS V14.01,2013-02-14 07:45:00,
2013-02-14 02:50:00,61.1,59.4,29.95,NNE,27,2.0,6.0,94,0.01,,SKC,0.67,VWS V14.01,2013-02-14 07:50:00,
2013-02-14 02:55:00,60.9,59.2,29.95,NE,40,5.0,7.0,94,0.03,,SKC,0.69,VWS V14.01,2013-02-14 07:55:00,
2013-02-14 03:00:00,60.8,59.1,29.95,NNE,26,7.0,11.0,94,0.03,,SKC,0.69,VWS V14.01,2013-02-14 08:00:00,
2013-02-14 03:04:00,60.7,59.0,29.95,NE,50,3.0,8.0,94,0.03,,SKC,0.69,VWS V14.01,2013-02-14 08:04:00,
2013-02-14 03:10:00,60.7,59.0,29.95,NE,36,1.0,8.0,94,0.03,,SKC,0.69,VWS V14.01,2013-02-14 08:10:00,
2013-02-14 03:15:00,60.8,59.1,29.95,NE,55,4.0,8.0,94,0.03,,SKC,0.69,VWS V14.01,2013-02-14 08:15:00,
2013-02-14 03:20:00,60.8,59.1,29.95,NE,44,0.0,8.0,94,0.03,,SKC,0.69,VWS V14.01,2013-02-14 08:20:00,
2013-02-14 03:25:00,60.8,59.1,29.95,ENE,66,1.0,8.0,94,0.03,,SKC,0.69,VWS V14.01,2013-02-14 08:25:00,
2013-02-14 03:30:00,60.8,59.1,29.94,NE,41,2.0,8.0,94,0.03,,SKC,0.69,VWS V14.01,2013-02-14 08:30:00,
2013-02-14 03:40:00,60.6,58.9,29.95,NNW,336,1.0,1.0,94,0.00,,SKC,0.72,VWS V14.01,2013-02-14 08:40:00,
2013-02-14 03:45:00,60.6,58.9,29.95,North,11,1.0,5.0,94,0.14,,SKC,0.80,VWS V14.01,2013-02-14 08:45:00,
2013-02-14 03:50:00,60.6,58.9,29.96,NNW,336,2.0,5.0,94,0.16,,SKC,0.82,VWS V14.01,2013-02-14 08:50:00,
2013-02-14 03:55:00,60.5,58.8,29.96,NNE,27,2.0,6.0,94,0.21,,SKC,0.87,VWS V14.01,2013-02-14 08:55:00,
2013-02-14 04:00:00,60.3,58.6,29.96,NNE,28,2.0,11.0,94,0.21,,SKC,0.87,VWS V14.01,2013-02-14 09:00:00,
2013-02-14 04:05:00,60.1,58.4,29.95,NNW,341,6.0,12.0,94,0.19,,SKC,0.88,VWS V14.01,2013-02-14 09:05:00,
2013-02-14 04:10:00,59.9,58.2,29.95,NNE,26,6.0,12.0,94,0.19,,SKC,0.88,VWS V14.01,2013-02-14 09:10:00,
2013-02-14 04:15:00,59.7,58.0,29.95,NW,321,5.0,12.0,94,0.20,,SKC,0.89,VWS V14.01,2013-02-14 09:15:00,
2013-02-14 04:20:00,59.7,58.0,29.94,NNE,22,5.0,12.0,94,0.21,,SKC,0.90,VWS V14.01,2013-02-14 09:20:00,
2013-02-14 04:25:00,59.7,58.0,29.94,NE,47,4.0,14.0,94,0.21,,SKC,0.90,VWS V14.01,2013-02-14 09:25:00,
2013-02-14 04:30:00,59.8,58.1,29.93,NE,40,7.0,14.0,94,0.21,,SKC,0.90,VWS V14.01,2013-02-14 09:30:00,
2013-02-14 04:35:00,59.9,58.5,29.95,ENE,78,1.0,9.0,95,0.04,,SKC,0.91,VWS V14.01,2013-02-14 09:35:00,
2013-02-14 04:40:00,60.0,58.6,29.95,NE,35,4.0,9.0,95,0.06,,SKC,0.93,VWS V14.01,2013-02-14 09:40:00,
2013-02-14 04:45:00,60.0,58.6,29.94,East,84,5.0,11.0,95,0.10,,SKC,0.97,VWS V14.01,2013-02-14 09:45:00,
2013-02-14 04:50:00,60.0,58.6,29.93,NE,48,8.0,13.0,95,0.11,,SKC,0.98,VWS V14.01,2013-02-14 09:50:00,
2013-02-14 04:55:00,60.1,58.7,29.92,NE,54,6.0,13.0,95,0.11,,SKC,0.98,VWS V14.01,2013-02-14 09:55:00,
2013-02-14 05:00:00,60.2,58.8,29.93,NE,37,3.0,13.0,95,0.11,,SKC,0.98,VWS V14.01,2013-02-14 10:00:00,
2013-02-14 05:05:00,60.4,59.0,29.93,ESE,115,3.0,10.0,95,0.11,,SKC,0.98,VWS V14.01,2013-02-14 10:05:00,
2013-02-14 05:10:00,60.4,59.0,29.93,North,360,3.0,10.0,95,0.11,,SKC,0.98,VWS V14.01,2013-02-14 10:10:00,
2013-02-14 05:15:00,60.3,58.9,29.92,NE,50,7.0,10.0,95,0.11,,SKC,0.98,VWS V14.01,2013-02-14 10:15:00,
2013-02-14 05:20:00,60.3,58.9,29.93,ESE,110,2.0,16.0,95,0.11,,SKC,0.98,VWS V14.01,2013-02-14 10:20:00,
2013-02-14 05:25:00,60.3,58.9,29.94,NE,40,0.0,16.0,95,0.11,,SKC,0.98,VWS V14.01,2013-02-14 10:25:00,
2013-02-14 05:30:00,60.4,59.0,29.95,SE,136,2.0,16.0,95,0.11,,SKC,0.98,VWS V14.01,2013-02-14 10:30:00,
2013-02-14 05:35:00,60.5,59.1,29.95,East,86,2.0,8.0,95,0.08,,SKC,0.98,VWS V14.01,2013-02-14 10:35:00,
2013-02-14 05:40:00,60.5,59.1,29.95,NE,55,5.0,9.0,95,0.08,,SKC,0.98,VWS V14.01,2013-02-14 10:40:00,
2013-02-14 05:45:00,60.5,59.1,29.95,NE,39,4.0,9.0,95,0.08,,SKC,0.98,VWS V14.01,2013-02-14 10:45:00,
2013-02-14 05:50:00,60.6,59.2,29.95,ENE,59,6.0,9.0,95,0.08,,SKC,0.98,VWS V14.01,2013-02-14 10:50:00,
2013-02-14 05:55:00,60.6,59.2,29.94,East,80,6.0,9.0,95,0.08,,SKC,0.98,VWS V14.01,2013-02-14 10:55:00,
2013-02-14 06:00:00,60.6,59.2,29.94,ESE,113,2.0,18.0,95,0.08,,SKC,0.98,VWS V14.01,2013-02-14 11:00:00,
2013-02-14 06:05:00,60.6,59.2,29.94,East,97,6.0,10.0,95,0.00,,SKC,0.98,VWS V14.01,2013-02-14 11:05:00,
2013-02-14 06:10:00,60.6,59.2,29.94,NE,56,7.0,10.0,95,0.00,,SKC,0.98,VWS V14.01,2013-02-14 11:10:00,
2013-02-14 06:15:00,60.7,59.3,29.94,ENE,73,1.0,10.0,95,0.00,,SKC,0.98,VWS V14.01,2013-02-14 11:15:00,
2013-02-14 06:20:00,60.7,59.3,29.95,NE,49,6.0,10.0,95,0.00,,SKC,0.98,VWS V14.01,2013-02-14 11:20:00,
2013-02-14 06:25:00,60.7,59.3,29.95,NNW,329,4.0,10.0,95,0.00,,SKC,0.98,VWS V14.01,2013-02-14 11:25:00,
2013-02-14 06:30:00,60.6,59.2,29.94,NE,49,3.0,10.0,95,0.00,,SKC,0.98,VWS V14.01,2013-02-14 11:30:00,
2013-02-14 06:35:00,60.7,59.3,29.94,NE,53,7.0,9.0,95,0.00,,SKC,0.98,VWS V14.01,2013-02-14 11:35:00,
2013-02-14 06:40:00,60.8,59.4,29.95,NNW,345,3.0,9.0,95,0.00,,SKC,0.98,VWS V14.01,2013-02-14 11:40:00,
2013-02-14 06:45:00,60.8,59.4,29.95,NNE,16,0.0,9.0,95,0.00,,SKC,0.98,VWS V14.01,2013-02-14 11:45:00,
2013-02-14 06:50:00,61.0,59.6,29.95,NNE,26,1.0,9.0,95,0.00,,SKC,0.98,VWS V14.01,2013-02-14 11:50:00,
2013-02-14 06:55:00,61.0,59.6,29.96,NNW,331,2.0,9.0,95,0.00,,SKC,0.98,VWS V14.01,2013-02-14 11:55:00,
2013-02-14 07:00:00,61.0,59.6,29.96,NE,35,1.0,9.0,95,0.00,,SKC,0.98,VWS V14.01,2013-02-14 12:00:00,
2013-02-14 07:05:00,61.0,59.6,29.96,NE,45,5.0,6.0,95,0.00,,SKC,0.98,VWS V14.01,2013-02-14 12:05:00,
2013-02-14 07:10:00,60.9,59.5,29.96,NNE,16,0.0,6.0,95,0.00,,SKC,0.98,VWS V14.01,2013-02-14 12:10:00,
2013-02-14 07:15:00,61.0,59.6,29.97,North,350,0.0,6.0,95,0.00,,SKC,0.98,VWS V14.01,2013-02-14 12:15:00,
2013-02-14 07:20:00,61.1,59.7,29.97,NE,54,0.0,6.0,95,0.01,,SKC,0.99,VWS V14.01,2013-02-14 12:20:00,
2013-02-14 07:25:00,61.2,59.8,29.98,NNW,339,0.0,6.0,95,0.02,,SKC,1.00,VWS V14.01,2013-02-14 12:25:00,
2013-02-14 07:30:00,61.3,59.9,29.98,NNE,19,0.0,6.0,95,0.04,,SKC,1.02,VWS V14.01,2013-02-14 12:30:00,
2013-02-14 07:35:00,61.4,60.0,29.98,North,5,0.0,0.0,95,0.06,,SKC,1.04,VWS V14.01,2013-02-14 12:35:00,
2013-02-14 07:40:00,61.3,59.9,29.97,NNE,16,5.0,6.0,95,0.07,,SKC,1.05,VWS V14.01,2013-02-14 12:40:00,
2013-02-14 07:45:00,61.3,59.9,29.97,NE,46,1.0,6.0,95,0.09,,SKC,1.07,VWS V14.01,2013-02-14 12:45:00,
2013-02-14 07:50:00,61.4,60.0,29.98,ESE,107,1.0,6.0,95,0.12,,SKC,1.10,VWS V14.01,2013-02-14 12:50:00,
2013-02-14 07:55:00,61.4,60.0,29.98,East,94,3.0,6.0,95,0.20,,SKC,1.18,VWS V14.01,2013-02-14 12:55:00,
2013-02-14 08:00:00,61.4,60.0,29.97,ESE,121,5.0,7.0,95,0.25,,SKC,1.23,VWS V14.01,2013-02-14 13:00:00,
2013-02-14 08:05:00,61.4,60.0,29.96,ENE,64,9.0,9.0,95,0.30,,SKC,1.28,VWS V14.01,2013-02-14 13:05:00,
2013-02-14 08:10:00,61.4,60.0,29.97,East,84,6.0,9.0,95,0.31,,SKC,1.29,VWS V14.01,2013-02-14 13:10:00,
2013-02-14 08:15:00,61.6,60.5,29.96,NE,46,5.0,9.0,96,0.33,,SKC,1.31,VWS V14.01,2013-02-14 13:15:00,
2013-02-14 08:20:00,61.7,60.5,29.96,East,88,9.0,10.0,96,0.34,,SKC,1.32,VWS V14.01,2013-02-14 13:20:00,
2013-02-14 08:25:00,61.9,60.8,29.97,ENE,59,1.0,10.0,96,0.34,,SKC,1.32,VWS V14.01,2013-02-14 13:25:00,
2013-02-14 08:30:00,62.0,60.8,29.97,ESE,106,2.0,10.0,96,0.34,,SKC,1.32,VWS V14.01,2013-02-14 13:30:00,
2013-02-14 08:35:00,62.2,61.0,29.97,ESE,117,5.0,6.0,96,0.30,,SKC,1.32,VWS V14.01,2013-02-14 13:35:00,
2013-02-14 08:40:00,62.4,61.2,29.97,ENE,68,3.0,6.0,96,0.30,,SKC,1.32,VWS V14.01,2013-02-14 13:40:00,
2013-02-14 08:45:00,62.6,61.5,29.97,NE,55,4.0,7.0,96,0.30,,SKC,1.32,VWS V14.01,2013-02-14 13:45:00,
2013-02-14 08:50:00,62.6,61.5,29.97,ENE,63,2.0,9.0,96,0.30,,SKC,1.32,VWS V14.01,2013-02-14 13:50:00,
2013-02-14 08:55:00,62.9,61.8,29.97,NE,51,1.0,9.0,96,0.30,,SKC,1.32,VWS V14.01,2013-02-14 13:55:00,
2013-02-14 09:00:00,63.1,61.9,29.97,ENE,62,1.0,9.0,96,0.30,,SKC,1.32,VWS V14.01,2013-02-14 14:00:00,
2013-02-14 09:05:00,63.2,62.0,29.97,NE,42,3.0,9.0,96,0.09,,SKC,1.32,VWS V14.01,2013-02-14 14:05:00,
2013-02-14 09:10:00,63.4,62.2,29.97,NNE,24,3.0,9.0,96,0.09,,SKC,1.32,VWS V14.01,2013-02-14 14:10:00,
2013-02-14 09:15:00,63.6,62.4,29.97,ENE,62,6.0,10.0,96,0.09,,SKC,1.32,VWS V14.01,2013-02-14 14:15:00,
2013-02-14 09:20:00,63.8,62.6,29.98,East,92,1.0,10.0,96,0.09,,SKC,1.32,VWS V14.01,2013-02-14 14:20:00,
2013-02-14 09:25:00,64.1,62.9,29.98,ENE,59,5.0,10.0,96,0.09,,SKC,1.32,VWS V14.01,2013-02-14 14:25:00,
2013-02-14 09:30:00,64.1,62.9,29.98,NE,42,4.0,10.0,96,0.09,,SKC,1.32,VWS V14.01,2013-02-14 14:30:00,
2013-02-14 09:35:00,64.1,62.6,29.98,NE,36,4.0,10.0,95,0.00,,SKC,1.32,VWS V14.01,2013-02-14 14:35:00,
2013-02-14 09:40:00,64.1,62.9,29.98,East,82,6.0,10.0,96,0.00,,SKC,1.32,VWS V14.01,2013-02-14 14:40:00,
2013-02-14 09:45:00,64.2,63.0,29.98,ENE,74,2.0,10.0,96,0.00,,SKC,1.32,VWS V14.01,2013-02-14 14:45:00,
2013-02-14 09:50:00,64.5,63.3,29.98,NE,53,0.0,10.0,96,0.00,,SKC,1.32,VWS V14.01,2013-02-14 14:50:00,
2013-02-14 09:55:00,65.0,63.8,29.98,SE,126,4.0,10.0,96,0.00,,SKC,1.32,VWS V14.01,2013-02-14 14:55:00,
2013-02-14 10:00:00,65.0,63.5,29.98,East,83,0.0,10.0,95,0.00,,SKC,1.32,VWS V14.01,2013-02-14 15:00:00,
2013-02-14 10:05:00,65.2,63.7,29.98,NE,42,0.0,6.0,95,0.00,,SKC,1.32,VWS V14.01,2013-02-14 15:05:00,
2013-02-14 10:10:00,65.5,64.3,29.99,West,280,2.0,6.0,96,0.00,,SKC,1.32,VWS V14.01,2013-02-14 15:10:00,
2013-02-14 10:15:00,65.5,64.0,30.00,WNW,286,0.0,6.0,95,0.00,,SKC,1.32,VWS V14.01,2013-02-14 15:15:00,
2013-02-14 10:20:00,65.8,64.6,29.99,ENE,65,4.0,6.0,96,0.00,,SKC,1.32,VWS V14.01,2013-02-14 15:20:00,
2013-02-14 10:25:00,66.0,64.8,29.99,NE,53,1.0,6.0,96,0.00,,SKC,1.32,VWS V14.01,2013-02-14 15:25:00,
2013-02-14 10:30:00,66.4,65.2,29.98,NNE,32,3.0,6.0,96,0.00,,SKC,1.32,VWS V14.01,2013-02-14 15:30:00,
2013-02-14 10:35:00,66.6,65.1,29.98,NE,52,6.0,7.0,95,0.00,,SKC,1.32,VWS V14.01,2013-02-14 15:35:00,
2013-02-14 10:40:00,67.0,65.5,29.98,NE,41,4.0,7.0,95,0.00,,SKC,1.32,VWS V14.01,2013-02-14 15:40:00,
2013-02-14 10:45:00,67.7,66.2,29.98,ESE,115,6.0,8.0,95,0.00,,SKC,1.32,VWS V14.01,2013-02-14 15:45:00,
2013-02-14 10:50:00,67.9,66.1,29.98,ENE,65,4.0,8.0,94,0.00,,SKC,1.32,VWS V14.01,2013-02-14 15:50:00,
2013-02-14 10:55:00,67.8,66.0,29.98,NE,48,4.0,8.0,94,0.00,,SKC,1.32,VWS V14.01,2013-02-14 15:55:00,
2013-02-14 11:00:00,67.7,65.9,29.98,East,92,1.0,8.0,94,0.00,,SKC,1.32,VWS V14.01,2013-02-14 16:00:00,
2013-02-14 11:05:00,68.1,66.3,29.98,NE,46,2.0,5.0,94,0.00,,SKC,1.32,VWS V14.01,2013-02-14 16:05:00,
2013-02-14 11:10:00,68.2,66.4,29.98,NE,51,4.0,7.0,94,0.00,,SKC,1.32,VWS V14.01,2013-02-14 16:10:00,
2013-02-14 11:15:00,68.4,66.6,29.97,East,87,6.0,7.0,94,0.00,,SKC,1.32,VWS V14.01,2013-02-14 16:15:00,
2013-02-14 11:20:00,68.4,66.3,29.97,ENE,75,5.0,7.0,93,0.00,,SKC,1.32,VWS V14.01,2013-02-14 16:20:00,
2013-02-14 11:25:00,68.6,66.8,29.97,NE,48,2.0,7.0,94,0.00,,SKC,1.32,VWS V14.01,2013-02-14 16:25:00,
2013-02-14 11:30:00,69.0,67.2,29.96,NE,43,2.0,7.0,94,0.00,,SKC,1.32,VWS V14.01,2013-02-14 16:30:00,
2013-02-14 11:35:00,69.4,67.3,29.96,NE,48,2.0,8.0,93,0.00,,SKC,1.32,VWS V14.01,2013-02-14 16:35:00,
2013-02-14 11:40:00,70.1,68.0,29.96,ESE,105,1.0,8.0,93,0.00,,SKC,1.32,VWS V14.01,2013-02-14 16:40:00,
2013-02-14 11:45:00,70.1,67.7,29.96,ENE,78,0.0,8.0,92,0.00,,SKC,1.32,VWS V14.01,2013-02-14 16:45:00,
2013-02-14 11:50:00,70.1,67.7,29.95,ENE,60,2.0,8.0,92,0.00,,SKC,1.32,VWS V14.01,2013-02-14 16:50:00,
2013-02-14 11:55:00,70.6,68.2,29.95,NE,42,4.0,8.0,92,0.00,,SKC,1.32,VWS V14.01,2013-02-14 16:55:00,
2013-02-14 12:00:00,70.9,68.5,29.95,West,274,1.0,8.0,92,0.00,,SKC,1.32,VWS V14.01,2013-02-14 17:00:00,
2013-02-14 12:05:00,70.9,68.2,29.96,WNW,290,5.0,8.0,91,0.00,,SKC,1.32,VWS V14.01,2013-02-14 17:05:00,
2013-02-14 12:10:00,70.7,67.9,29.95,North,349,3.0,9.0,91,0.00,,SKC,1.32,VWS V14.01,2013-02-14 17:10:00,
2013-02-14 12:15:00,70.4,67.7,29.95,West,276,2.0,9.0,91,0.00,,SKC,1.32,VWS V14.01,2013-02-14 17:15:00,
2013-02-14 12:20:00,70.2,67.4,29.94,NNW,345,5.0,9.0,91,0.00,,SKC,1.32,VWS V14.01,2013-02-14 17:20:00,
2013-02-14 12:25:00,70.4,67.7,29.94,NE,53,2.0,9.0,91,0.00,,SKC,1.32,VWS V14.01,2013-02-14 17:25:00,
2013-02-14 12:30:00,70.9,68.5,29.94,NW,319,2.0,9.0,92,0.00,,SKC,1.32,VWS V14.01,2013-02-14 17:30:00,
2013-02-14 12:35:00,71.1,68.3,29.93,NE,53,5.0,8.0,91,0.00,,SKC,1.32,VWS V14.01,2013-02-14 17:35:00,
2013-02-14 12:40:00,71.3,68.2,29.93,East,97,3.0,8.0,90,0.00,,SKC,1.32,VWS V14.01,2013-02-14 17:40:00,
2013-02-14 12:45:00,71.9,69.1,29.92,ENE,77,0.0,8.0,91,0.00,,SKC,1.32,VWS V14.01,2013-02-14 17:45:00,
2013-02-14 12:50:00,72.6,69.5,29.92,East,92,5.0,8.0,90,0.00,,SKC,1.32,VWS V14.01,2013-02-14 17:50:00,
2013-02-14 12:55:00,72.8,69.4,29.92,ESE,107,2.0,8.0,89,0.00,,SKC,1.32,VWS V14.01,2013-02-14 17:55:00,
2013-02-14 13:00:00,73.1,69.7,29.92,NE,55,1.0,8.0,89,0.00,,SKC,1.32,VWS V14.01,2013-02-14 18:00:00,
2013-02-14 13:05:00,73.6,70.2,29.91,East,80,1.0,4.0,89,0.00,,SKC,1.32,VWS V14.01,2013-02-14 18:05:00,
2013-02-14 13:10:00,74.0,69.9,29.91,ENE,69,0.0,4.0,87,0.00,,SKC,1.32,VWS V14.01,2013-02-14 18:10:00,
2013-02-14 13:15:00,74.2,69.8,29.91,SE,144,0.0,7.0,86,0.00,,SKC,1.32,VWS V14.01,2013-02-14 18:15:00,
2013-02-14 13:20:00,75.4,70.9,29.90,SSE,150,1.0,7.0,86,0.00,,SKC,1.32,VWS V14.01,2013-02-14 18:20:00,
2013-02-14 13:25:00,76.2,70.7,29.89,NNE,29,1.0,7.0,83,0.00,,SKC,1.32,VWS V14.01,2013-02-14 18:25:00,
2013-02-14 13:30:00,76.7,70.8,29.89,East,82,5.0,7.0,82,0.00,,SKC,1.32,VWS V14.01,2013-02-14 18:30:00,
2013-02-14 13:35:00,77.8,71.9,29.89,ESE,123,1.0,6.0,82,0.00,,SKC,1.32,VWS V14.01,2013-02-14 18:35:00,
2013-02-14 13:40:00,78.0,71.3,29.88,East,86,6.0,6.0,80,0.00,,SKC,1.32,VWS V14.01,2013-02-14 18:40:00,
2013-02-14 13:45:00,78.0,71.3,29.89,ESE,102,1.0,7.0,80,0.00,,SKC,1.32,VWS V14.01,2013-02-14 18:45:00,
2013-02-14 13:50:00,78.5,70.7,29.88,South,175,3.0,7.0,77,0.00,,SKC,1.32,VWS V14.01,2013-02-14 18:50:00,
2013-02-14 13:55:00,79.0,71.9,29.88,NW,317,1.0,7.0,79,0.00,,SKC,1.32,VWS V14.01,2013-02-14 18:55:00,
2013-02-14 14:00:00,79.4,71.2,29.87,SSE,165,2.0,7.0,76,0.00,,SKC,1.32,VWS V14.01,2013-02-14 19:00:00,
2013-02-14 14:05:00,79.0,71.2,29.87,ESE,123,2.0,7.0,77,0.00,,SKC,1.32,VWS V14.01,2013-02-14 19:05:00,
2013-02-14 14:10:00,78.5,71.1,29.87,SSE,158,6.0,7.0,78,0.00,,SKC,1.32,VWS V14.01,2013-02-14 19:10:00,
2013-02-14 14:15:00,77.9,70.9,29.87,SW,227,1.0,7.0,79,0.00,,SKC,1.32,VWS V14.01,2013-02-14 19:15:00,
2013-02-14 14:20:00,78.1,71.4,29.87,SW,221,2.0,7.0,80,0.00,,SKC,1.32,VWS V14.01,2013-02-14 19:20:00,
2013-02-14 14:25:00,77.6,70.6,29.87,West,261,2.0,7.0,79,0.00,,SKC,1.32,VWS V14.01,2013-02-14 19:25:00,
2013-02-14 14:30:00,75.3,66.8,29.88,WNW,288,7.0,14.0,75,0.00,,SKC,1.32,VWS V14.01,2013-02-14 19:30:00,
2013-02-14 14:35:00,71.7,65.2,29.88,West,267,5.0,13.0,80,0.00,,SKC,1.32,VWS V14.01,2013-02-14 19:35:00,
2013-02-14 14:40:00,70.1,64.7,29.89,WNW,292,21.0,21.0,83,0.00,,SKC,1.32,VWS V14.01,2013-02-14 19:40:00,
2013-02-14 14:45:00,68.7,64.0,29.88,NNE,17,12.0,22.0,85,0.00,,SKC,1.32,VWS V14.01,2013-02-14 19:45:00,
2013-02-14 14:50:00,68.1,64.1,29.89,West,279,9.0,22.0,87,0.00,,SKC,1.32,VWS V14.01,2013-02-14 19:50:00,
2013-02-14 14:55:00,67.7,64.0,29.90,WNW,282,11.0,22.0,88,0.00,,SKC,1.32,VWS V14.01,2013-02-14 19:55:00,
2013-02-14 15:00:00,66.9,63.6,29.89,WNW,286,14.0,22.0,89,0.08,,SKC,1.40,VWS V14.01,2013-02-14 20:00:00,
2013-02-14 15:05:00,66.3,63.6,29.90,WNW,295,9.0,18.0,91,0.08,,SKC,1.40,VWS V14.01,2013-02-14 20:05:00,
2013-02-14 15:09:00,65.7,63.3,29.90,NW,314,8.0,18.0,92,0.09,,SKC,1.41,VWS V14.01,2013-02-14 20:09:00,
2013-02-14 15:15:00,65.2,62.8,29.90,West,263,6.0,22.0,92,0.09,,SKC,1.41,VWS V14.01,2013-02-14 20:15:00,
2013-02-14 15:19:00,64.8,62.4,29.90,NW,311,12.0,22.0,92,0.09,,SKC,1.41,VWS V14.01,2013-02-14 20:19:00,
2013-02-14 15:24:00,64.3,61.9,29.90,NNW,334,9.0,22.0,92,0.10,,SKC,1.42,VWS V14.01,2013-02-14 20:24:00,
2013-02-14 15:29:00,63.7,61.3,29.90,NNW,347,4.0,22.0,92,0.14,,SKC,1.46,VWS V14.01,2013-02-14 20:29:00,
2013-02-14 15:35:00,63.1,61.0,29.90,NNE,26,9.0,23.0,93,0.24,,SKC,1.56,VWS V14.01,2013-02-14 20:35:00,
2013-02-14 15:40:00,62.8,61.0,29.91,NNE,28,12.0,23.0,94,0.30,,SKC,1.62,VWS V14.01,2013-02-14 20:40:00,
2013-02-14 15:45:00,62.6,60.8,29.91,WNW,284,5.0,23.0,94,0.34,,SKC,1.66,VWS V14.01,2013-02-14 20:45:00,
2013-02-14 15:50:00,62.5,60.8,29.92,NW,318,6.0,23.0,94,0.37,,SKC,1.69,VWS V14.01,2013-02-14 20:50:00,
2013-02-14 15:55:00,62.5,60.8,29.93,NW,307,6.0,23.0,94,0.40,,SKC,1.72,VWS V14.01,2013-02-14 20:55:00,
2013-02-14 16:00:00,62.5,61.0,29.93,NW,313,4.0,23.0,95,0.43,,SKC,1.75,VWS V14.01,2013-02-14 21:00:00,
2013-02-14 16:05:00,62.5,61.0,29.93,WNW,295,9.0,16.0,95,0.38,,SKC,1.78,VWS V14.01,2013-02-14 21:05:00,
2013-02-14 16:10:00,62.4,61.0,29.93,West,277,6.0,18.0,95,0.41,,SKC,1.81,VWS V14.01,2013-02-14 21:10:00,
2013-02-14 16:15:00,62.4,61.0,29.93,NNW,328,11.0,18.0,95,0.48,,SKC,1.88,VWS V14.01,2013-02-14 21:15:00,
2013-02-14 16:19:00,62.3,60.8,29.94,NW,314,9.0,20.0,95,0.54,,SKC,1.94,VWS V14.01,2013-02-14 21:19:00,
2013-02-14 16:24:00,62.0,60.6,29.94,NNW,328,10.0,20.0,95,0.57,,SKC,1.97,VWS V14.01,2013-02-14 21:24:00,
2013-02-14 16:29:00,61.8,60.4,29.94,NNE,24,8.0,20.0,95,0.59,,SKC,1.99,VWS V14.01,2013-02-14 21:29:00,
2013-02-14 16:34:00,61.7,60.3,29.95,NNE,18,9.0,18.0,95,0.54,,SKC,2.00,VWS V14.01,2013-02-14 21:34:00,
2013-02-14 16:39:00,61.6,60.2,29.95,NNE,31,9.0,18.0,95,0.55,,SKC,2.01,VWS V14.01,2013-02-14 21:39:00,
2013-02-14 16:44:00,61.5,60.1,29.95,NNW,347,14.0,19.0,95,0.56,,SKC,2.02,VWS V14.01,2013-02-14 21:44:00,
2013-02-14 16:49:00,61.5,60.1,29.95,NE,40,10.0,19.0,95,0.57,,SKC,2.03,VWS V14.01,2013-02-14 21:49:00,
2013-02-14 16:54:00,61.5,60.1,29.96,North,10,5.0,19.0,95,0.58,,SKC,2.04,VWS V14.01,2013-02-14 21:54:00,
2013-02-14 16:59:00,61.5,60.1,29.96,WNW,290,9.0,19.0,95,0.60,,SKC,2.06,VWS V14.01,2013-02-14 21:59:00,
2013-02-14 17:04:00,61.4,60.0,29.97,WNW,290,1.0,16.0,95,0.33,,SKC,2.08,VWS V14.01,2013-02-14 22:04:00,
2013-02-14 17:09:00,61.4,60.0,29.98,WNW,287,1.0,16.0,95,0.34,,SKC,2.09,VWS V14.01,2013-02-14 22:09:00,
2013-02-14 17:14:00,61.3,59.9,29.97,NNW,336,6.0,16.0,95,0.39,,SKC,2.14,VWS V14.01,2013-02-14 22:14:00,
2013-02-14 17:19:00,61.1,59.7,29.97,NW,326,6.0,16.0,95,0.41,,SKC,2.16,VWS V14.01,2013-02-14 22:19:00,
2013-02-14 17:24:00,61.0,59.6,29.97,NNW,344,3.0,16.0,95,0.41,,SKC,2.16,VWS V14.01,2013-02-14 22:24:00,
2013-02-14 17:29:00,60.9,59.5,29.97,North,349,7.0,16.0,95,0.43,,SKC,2.18,VWS V14.01,2013-02-14 22:29:00,
2013-02-14 17:34:00,60.9,59.5,29.97,NNE,30,1.0,10.0,95,0.20,,SKC,2.19,VWS V14.01,2013-02-14 22:34:00,
2013-02-14 17:39:00,61.0,59.6,29.98,NW,307,6.0,10.0,95,0.20,,SKC,2.19,VWS V14.01,2013-02-14 22:39:00,
2013-02-14 17:44:00,61.0,59.6,29.97,NNW,331,10.0,11.0,95,0.21,,SKC,2.20,VWS V14.01,2013-02-14 22:44:00,
2013-02-14 17:49:00,61.0,59.6,29.97,NNE,17,7.0,13.0,95,0.23,,SKC,2.22,VWS V14.01,2013-02-14 22:49:00,
2013-02-14 17:54:00,61.1,59.7,29.97,North,11,8.0,14.0,95,0.24,,SKC,2.23,VWS V14.01,2013-02-14 22:54:00,
2013-02-14 17:59:00,61.2,60.0,29.98,NNE,17,5.0,14.0,96,0.25,,SKC,2.24,VWS V14.01,2013-02-14 22:59:00,
2013-02-14 18:04:00,61.2,60.0,29.98,NNE,13,8.0,13.0,96,0.18,,SKC,2.24,VWS V14.01,2013-02-14 23:04:00,
2013-02-14 18:09:00,61.1,59.7,29.99,NE,51,8.0,16.0,95,0.19,,SKC,2.25,VWS V14.01,2013-02-14 23:09:00,
2013-02-14 18:14:00,60.9,59.5,29.99,NNW,340,12.0,16.0,95,0.20,,SKC,2.26,VWS V14.01,2013-02-14 23:14:00,
2013-02-14 18:19:00,60.6,59.2,30.00,NNW,340,12.0,16.0,95,0.22,,SKC,2.28,VWS V14.01,2013-02-14 23:19:00,
2013-02-14 18:24:00,60.4,59.0,29.99,NE,35,14.0,16.0,95,0.24,,SKC,2.30,VWS V14.01,2013-02-14 23:24:00,
2013-02-14 18:29:00,60.3,58.9,29.98,NNE,18,9.0,19.0,95,0.25,,SKC,2.31,VWS V14.01,2013-02-14 23:29:00,
2013-02-14 18:34:00,60.3,58.9,29.99,NW,325,6.0,12.0,95,0.15,,SKC,2.33,VWS V14.01,2013-02-14 23:34:00,
2013-02-14 18:39:00,60.3,58.9,29.99,NNW,346,9.0,14.0,95,0.16,,SKC,2.34,VWS V14.01,2013-02-14 23:39:00,
2013-02-14 18:44:00,60.3,59.2,29.99,NNW,336,3.0,14.0,96,0.17,,SKC,2.35,VWS V14.01,2013-02-14 23:44:00,
2013-02-14 18:49:00,60.3,58.9,29.99,NNW,339,4.0,15.0,95,0.18,,SKC,2.36,VWS V14.01,2013-02-14 23:49:00,
2013-02-14 18:54:00,60.3,59.2,30.00,NNW,329,8.0,15.0,96,0.18,,SKC,2.36,VWS V14.01,2013-02-14 23:54:00,
2013-02-14 18:59:00,60.5,59.4,30.00,NNE,13,2.0,15.0,96,0.18,,SKC,2.36,VWS V14.01,2013-02-14 23:59:00,
2013-02-14 19:04:00,60.4,59.3,30.00,NNW,346,5.0,10.0,96,0.12,,SKC,2.36,VWS V14.01,2013-02-15 00:04:00,
2013-02-14 19:09:00,60.5,59.4,30.00,NNE,18,8.0,10.0,96,0.12,,SKC,2.36,VWS V14.01,2013-02-15 00:09:00,
2013-02-14 19:14:00,60.5,59.4,29.99,NW,312,8.0,10.0,96,0.12,,SKC,2.36,VWS V14.01,2013-02-15 00:14:00,
2013-02-14 19:19:00,60.5,59.4,29.99,NW,323,5.0,13.0,96,0.12,,SKC,2.36,VWS V14.01,2013-02-15 00:19:00,
2013-02-14 19:24:00,60.5,59.4,30.00,ENE,57,3.0,16.0,96,0.12,,SKC,2.36,VWS V14.01,2013-02-15 00:24:00,
2013-02-14 19:29:00,60.4,59.3,30.01,NE,40,5.0,16.0,96,0.12,,SKC,2.36,VWS V14.01,2013-02-15 00:29:00,
2013-02-14 19:34:00,60.4,59.3,30.01,NNE,19,5.0,10.0,96,0.05,,SKC,2.36,VWS V14.01,2013-02-15 00:34:00,
2013-02-14 19:39:00,60.3,59.2,30.01,NE,55,6.0,12.0,96,0.05,,SKC,2.36,VWS V14.01,2013-02-15 00:39:00,
2013-02-14 19:44:00,60.3,59.2,30.01,NNW,329,4.0,13.0,96,0.05,,SKC,2.36,VWS V14.01,2013-02-15 00:44:00,
2013-02-14 19:49:00,60.2,59.1,30.01,NE,46,6.0,13.0,96,0.05,,SKC,2.36,VWS V14.01,2013-02-15 00:49:00,
2013-02-14 19:54:00,60.1,58.7,30.01,NNE,28,5.0,13.0,95,0.05,,SKC,2.36,VWS V14.01,2013-02-15 00:54:00,
2013-02-14 19:59:00,60.1,59.0,30.01,NE,46,4.0,13.0,96,0.05,,SKC,2.36,VWS V14.01,2013-02-15 00:59:00,
2013-02-14 20:04:00,60.1,59.0,30.01,NW,323,5.0,9.0,96,0.00,,SKC,2.36,VWS V14.01,2013-02-15 01:04:00,
2013-02-14 20:09:00,60.0,58.9,30.01,NE,48,4.0,9.0,96,0.00,,SKC,2.36,VWS V14.01,2013-02-15 01:09:00,
2013-02-14 20:14:00,60.0,58.9,30.01,NNW,344,5.0,10.0,96,0.00,,SKC,2.36,VWS V14.01,2013-02-15 01:14:00,
2013-02-14 20:19:00,60.0,58.9,30.01,NNW,340,7.0,10.0,96,0.00,,SKC,2.36,VWS V14.01,2013-02-15 01:19:00,
2013-02-14 20:24:00,60.0,58.6,30.01,North,360,5.0,13.0,95,0.00,,SKC,2.36,VWS V14.01,2013-02-15 01:24:00,
2013-02-14 20:29:00,59.9,58.8,30.01,NNW,341,2.0,13.0,96,0.00,,SKC,2.36,VWS V14.01,2013-02-15 01:29:00,
2013-02-14 20:34:00,59.9,58.8,30.01,NNE,12,6.0,10.0,96,0.00,,SKC,2.36,VWS V14.01,2013-02-15 01:34:00,
2013-02-14 20:39:00,59.9,58.8,30.01,NNE,18,0.0,10.0,96,0.00,,SKC,2.36,VWS V14.01,2013-02-15 01:39:00,
2013-02-14 20:44:00,59.8,58.4,30.01,NNE,22,8.0,18.0,95,0.01,,SKC,2.37,VWS V14.01,2013-02-15 01:44:00,
2013-02-14 20:49:00,59.7,58.3,30.01,NNE,32,7.0,18.0,95,0.01,,SKC,2.37,VWS V14.01,2013-02-15 01:49:00,
2013-02-14 20:54:00,59.6,58.2,30.01,NNE,12,10.0,18.0,95,0.01,,SKC,2.37,VWS V14.01,2013-02-15 01:54:00,
2013-02-14 20:59:00,59.6,58.2,30.01,NNW,336,8.0,18.0,95,0.01,,SKC,2.37,VWS V14.01,2013-02-15 01:59:00,
2013-02-14 21:04:00,59.6,58.2,30.01,NNW,348,6.0,9.0,95,0.01,,SKC,2.37,VWS V14.01,2013-02-15 02:04:00,
2013-02-14 21:09:00,59.5,58.1,30.00,NNE,24,7.0,10.0,95,0.01,,SKC,2.37,VWS V14.01,2013-02-15 02:09:00,
2013-02-14 21:14:00,59.4,58.0,30.00,NE,53,12.0,12.0,95,0.01,,SKC,2.37,VWS V14.01,2013-02-15 02:14:00,
2013-02-14 21:19:00,59.4,58.0,30.01,NNE,30,6.0,12.0,95,0.01,,SKC,2.37,VWS V14.01,2013-02-15 02:19:00,
2013-02-14 21:24:00,59.3,57.9,30.00,NE,41,7.0,12.0,95,0.01,,SKC,2.37,VWS V14.01,2013-02-15 02:24:00,
2013-02-14 21:29:00,59.3,57.9,30.00,NE,56,8.0,14.0,95,0.01,,SKC,2.37,VWS V14.01,2013-02-15 02:29:00,
2013-02-14 21:34:00,59.2,57.8,30.00,NNE,22,5.0,10.0,95,0.01,,SKC,2.37,VWS V14.01,2013-02-15 02:34:00,
2013-02-14 21:39:00,59.1,57.7,30.00,NNE,22,5.0,10.0,95,0.01,,SKC,2.37,VWS V14.01,2013-02-15 02:39:00,
2013-02-14 21:44:00,59.0,57.6,30.00,NE,39,7.0,10.0,95,0.01,,SKC,2.37,VWS V14.01,2013-02-15 02:44:00,
2013-02-14 21:49:00,59.1,57.7,30.00,NE,51,7.0,12.0,95,0.01,,SKC,2.37,VWS V14.01,2013-02-15 02:49:00,
2013-02-14 21:54:00,59.1,57.7,30.00,NE,45,7.0,12.0,95,0.01,,SKC,2.37,VWS V14.01,2013-02-15 02:54:00,
2013-02-14 21:59:00,59.2,57.8,30.01,NNW,336,5.0,12.0,95,0.01,,SKC,2.37,VWS V14.01,2013-02-15 02:59:00,
2013-02-14 22:04:00,59.2,57.5,30.01,NNE,29,3.0,11.0,94,0.00,,SKC,2.37,VWS V14.01,2013-02-15 03:04:00,
2013-02-14 22:09:00,59.2,57.5,30.01,NE,42,4.0,11.0,94,0.00,,SKC,2.37,VWS V14.01,2013-02-15 03:09:00,
2013-02-14 22:14:00,59.3,57.6,30.01,NNW,339,2.0,11.0,94,0.00,,SKC,2.37,VWS V14.01,2013-02-15 03:14:00,
2013-02-14 22:19:00,59.4,57.7,30.01,NW,319,4.0,11.0,94,0.00,,SKC,2.37,VWS V14.01,2013-02-15 03:19:00,
2013-02-14 22:24:00,59.4,57.7,30.02,NNW,334,5.0,11.0,94,0.00,,SKC,2.37,VWS V14.01,2013-02-15 03:24:00,
2013-02-14 22:29:00,59.5,57.8,30.03,NE,46,2.0,11.0,94,0.00,,SKC,2.37,VWS V14.01,2013-02-15 03:29:00,
2013-02-14 22:34:00,59.5,57.8,30.03,NE,34,2.0,7.0,94,0.00,,SKC,2.37,VWS V14.01,2013-02-15 03:34:00,
2013-02-14 22:39:00,59.5,57.8,30.04,NW,321,5.0,7.0,94,0.00,,SKC,2.37,VWS V14.01,2013-02-15 03:39:00,
2013-02-14 22:44:00,59.5,57.8,30.03,NE,35,4.0,7.0,94,0.00,,SKC,2.37,VWS V14.01,2013-02-15 03:44:00,
2013-02-14 22:49:00,59.6,57.9,30.03,NNE,13,2.0,7.0,94,0.00,,SKC,2.37,VWS V14.01,2013-02-15 03:49:00,
2013-02-14 22:54:00,59.6,57.9,30.03,NE,49,2.0,8.0,94,0.00,,SKC,2.37,VWS V14.01,2013-02-15 03:54:00,
2013-02-14 22:59:00,59.5,57.8,30.02,NNE,23,3.0,11.0,94,0.00,,SKC,2.37,VWS V14.01,2013-02-15 03:59:00,
2013-02-14 23:04:00,59.5,57.8,30.03,NNW,327,5.0,7.0,94,0.00,,SKC,2.37,VWS V14.01,2013-02-15 04:04:00,
2013-02-14 23:09:00,59.5,57.8,30.02,ENE,65,6.0,9.0,94,0.00,,SKC,2.37,VWS V14.01,2013-02-15 04:09:00,
2013-02-14 23:14:00,59.6,57.9,30.02,ENE,59,6.0,12.0,94,0.00,,SKC,2.37,VWS V14.01,2013-02-15 04:14:00,
2013-02-14 23:19:00,59.5,57.8,30.02,ENE,62,6.0,12.0,94,0.00,,SKC,2.37,VWS V14.01,2013-02-15 04:19:00,
2013-02-14 23:24:00,59.5,57.8,30.02,NE,53,8.0,12.0,94,0.00,,SKC,2.37,VWS V14.01,2013-02-15 04:24:00,
2013-02-14 23:29:00,59.5,57.8,30.01,NNE,31,4.0,12.0,94,0.00,,SKC,2.37,VWS V14.01,2013-02-15 04:29:00,
2013-02-14 23:34:00,59.5,57.8,30.02,North,355,6.0,7.0,94,0.00,,SKC,2.37,VWS V14.01,2013-02-15 04:34:00,
2013-02-14 23:39:00,59.5,57.8,30.02,NNE,28,4.0,7.0,94,0.00,,SKC,2.37,VWS V14.01,2013-02-15 04:39:00,
2013-02-14 23:44:00,59.5,57.8,30.02,NE,51,4.0,7.0,94,0.00,,SKC,2.37,VWS V14.01,2013-02-15 04:44:00,
2013-02-14 23:49:00,59.6,57.9,30.01,NE,50,4.0,7.0,94,0.00,,SKC,2.37,VWS V14.01,2013-02-15 04:49:00,
2013-02-14 23:54:00,59.7,58.0,30.01,NE,56,3.0,7.0,94,0.00,,SKC,2.37,VWS V14.01,2013-02-15 04:54:00,
2013-02-14 23:59:00,59.7,58.0,30.01,ENE,77,4.0,7.0,94,0.00,,SKC,2.37,VWS V14.01,2013-02-15 04:59:00,